sensor_id;sensor_type;location;lat;lon;timestamp;pressure;altitude;pressure_sealevel;temperature;humidity
62634;BME280;48704;50.534;6.442;2023-05-17T00:00:36;96170.88;;;5.44;100.00
62634;BME280;48704;50.534;6.442;2023-05-17T00:03:02;96174.34;;;5.48;100.00
62634;BME280;48704;50.534;6.442;2023-05-17T00:05:27;96173.16;;;5.49;100.00
62634;BME280;48704;50.534;6.442;2023-05-17T00:07:52;96180.25;;;5.82;100.00
62634;BME280;48704;50.534;6.442;2023-05-17T00:10:18;96177.69;;;5.91;100.00
62634;BME280;48704;50.534;6.442;2023-05-17T00:12:43;96186.63;;;5.79;100.00
62634;BME280;48704;50.534;6.442;2023-05-17T00:15:09;96185.44;;;5.80;100.00
62634;BME280;48704;50.534;6.442;2023-05-17T00:17:34;96187.63;;;5.89;100.00
62634;BME280;48704;50.534;6.442;2023-05-17T00:20:03;96181.28;;;6.04;100.00
62634;BME280;48704;50.534;6.442;2023-05-17T00:22:28;96178.16;;;5.86;100.00
62634;BME280;48704;50.534;6.442;2023-05-17T00:24:53;96177.81;;;5.84;100.00
62634;BME280;48704;50.534;6.442;2023-05-17T00:27:19;96173.31;;;5.74;100.00
62634;BME280;48704;50.534;6.442;2023-05-17T00:29:44;96175.91;;;5.49;100.00
62634;BME280;48704;50.534;6.442;2023-05-17T00:32:09;96171.50;;;5.67;100.00
62634;BME280;48704;50.534;6.442;2023-05-17T00:34:35;96167.63;;;5.81;100.00
62634;BME280;48704;50.534;6.442;2023-05-17T00:37:00;96170.38;;;5.65;100.00
62634;BME280;48704;50.534;6.442;2023-05-17T00:39:25;96170.38;;;5.81;100.00
62634;BME280;48704;50.534;6.442;2023-05-17T00:41:50;96178.03;;;5.93;100.00
62634;BME280;48704;50.534;6.442;2023-05-17T00:44:16;96175.22;;;5.77;100.00
62634;BME280;48704;50.534;6.442;2023-05-17T00:46:41;96180.59;;;5.52;100.00
62634;BME280;48704;50.534;6.442;2023-05-17T00:49:06;96183.06;;;5.62;100.00
62634;BME280;48704;50.534;6.442;2023-05-17T00:51:32;96183.34;;;5.68;100.00
62634;BME280;48704;50.534;6.442;2023-05-17T00:53:59;96185.50;;;5.60;100.00
62634;BME280;48704;50.534;6.442;2023-05-17T00:56:24;96187.31;;;5.67;100.00
62634;BME280;48704;50.534;6.442;2023-05-17T00:58:49;96182.56;;;5.67;100.00
62634;BME280;48704;50.534;6.442;2023-05-17T01:01:15;96182.50;;;5.87;100.00
62634;BME280;48704;50.534;6.442;2023-05-17T01:03:40;96188.38;;;6.06;100.00
62634;BME280;48704;50.534;6.442;2023-05-17T01:06:06;96195.06;;;5.92;100.00
62634;BME280;48704;50.534;6.442;2023-05-17T01:08:32;96186.06;;;5.35;100.00
62634;BME280;48704;50.534;6.442;2023-05-17T01:11:14;96192.00;;;5.54;100.00
62634;BME280;48704;50.534;6.442;2023-05-17T01:13:57;96193.47;;;5.22;100.00
62634;BME280;48704;50.534;6.442;2023-05-17T01:16:37;96192.84;;;5.51;100.00
62634;BME280;48704;50.534;6.442;2023-05-17T01:19:33;96197.59;;;5.14;100.00
62634;BME280;48704;50.534;6.442;2023-05-17T01:22:26;96194.22;;;5.59;100.00
62634;BME280;48704;50.534;6.442;2023-05-17T01:27:35;96204.63;;;5.87;100.00
62634;BME280;48704;50.534;6.442;2023-05-17T01:30:01;96209.47;;;5.83;100.00
62634;BME280;48704;50.534;6.442;2023-05-17T01:32:26;96206.34;;;5.81;100.00
62634;BME280;48704;50.534;6.442;2023-05-17T01:34:52;96207.16;;;5.46;100.00
62634;BME280;48704;50.534;6.442;2023-05-17T01:37:17;96207.19;;;5.78;100.00
62634;BME280;48704;50.534;6.442;2023-05-17T01:39:43;96212.94;;;6.03;100.00
62634;BME280;48704;50.534;6.442;2023-05-17T01:42:30;96215.47;;;5.62;100.00
62634;BME280;48704;50.534;6.442;2023-05-17T01:47:32;96211.88;;;5.81;100.00
62634;BME280;48704;50.534;6.442;2023-05-17T01:50:02;96214.81;;;5.74;100.00
62634;BME280;48704;50.534;6.442;2023-05-17T01:52:48;96214.09;;;5.70;100.00
62634;BME280;48704;50.534;6.442;2023-05-17T01:58:06;96208.94;;;5.72;100.00
62634;BME280;48704;50.534;6.442;2023-05-17T02:00:33;96223.06;;;5.58;100.00
62634;BME280;48704;50.534;6.442;2023-05-17T02:02:59;96221.28;;;5.84;100.00
62634;BME280;48704;50.534;6.442;2023-05-17T02:05:24;96223.63;;;5.85;100.00
62634;BME280;48704;50.534;6.442;2023-05-17T02:07:49;96219.59;;;6.06;100.00
62634;BME280;48704;50.534;6.442;2023-05-17T02:10:15;96216.22;;;5.98;100.00
62634;BME280;48704;50.534;6.442;2023-05-17T02:12:40;96218.28;;;6.11;100.00
62634;BME280;48704;50.534;6.442;2023-05-17T02:15:06;96220.03;;;6.21;100.00
62634;BME280;48704;50.534;6.442;2023-05-17T02:17:33;96222.44;;;6.19;100.00
62634;BME280;48704;50.534;6.442;2023-05-17T02:19:58;96220.69;;;5.76;100.00
62634;BME280;48704;50.534;6.442;2023-05-17T02:22:24;96230.50;;;5.61;100.00
62634;BME280;48704;50.534;6.442;2023-05-17T02:24:49;96231.00;;;6.08;100.00
62634;BME280;48704;50.534;6.442;2023-05-17T02:27:14;96234.38;;;5.99;100.00
62634;BME280;48704;50.534;6.442;2023-05-17T02:29:40;96228.84;;;5.99;100.00
62634;BME280;48704;50.534;6.442;2023-05-17T02:32:05;96236.09;;;6.10;100.00
62634;BME280;48704;50.534;6.442;2023-05-17T02:34:30;96230.75;;;6.02;100.00
62634;BME280;48704;50.534;6.442;2023-05-17T02:36:56;96231.94;;;6.01;100.00
62634;BME280;48704;50.534;6.442;2023-05-17T02:39:21;96227.63;;;6.17;100.00
62634;BME280;48704;50.534;6.442;2023-05-17T02:41:46;96224.34;;;6.22;100.00
62634;BME280;48704;50.534;6.442;2023-05-17T02:44:11;96224.00;;;6.03;100.00
62634;BME280;48704;50.534;6.442;2023-05-17T02:46:37;96223.66;;;6.18;100.00
62634;BME280;48704;50.534;6.442;2023-05-17T02:49:02;96226.06;;;6.16;100.00
62634;BME280;48704;50.534;6.442;2023-05-17T02:51:27;96224.53;;;6.15;100.00
62634;BME280;48704;50.534;6.442;2023-05-17T02:53:52;96231.44;;;5.90;100.00
62634;BME280;48704;50.534;6.442;2023-05-17T02:56:18;96232.69;;;5.69;100.00
62634;BME280;48704;50.534;6.442;2023-05-17T02:58:43;96228.56;;;5.42;100.00
62634;BME280;48704;50.534;6.442;2023-05-17T03:01:17;96228.94;;;5.60;100.00
62634;BME280;48704;50.534;6.442;2023-05-17T03:03:42;96236.06;;;5.77;100.00
62634;BME280;48704;50.534;6.442;2023-05-17T03:06:08;96224.84;;;5.84;100.00
62634;BME280;48704;50.534;6.442;2023-05-17T03:08:33;96230.25;;;5.91;100.00
62634;BME280;48704;50.534;6.442;2023-05-17T03:10:58;96230.59;;;5.93;100.00
62634;BME280;48704;50.534;6.442;2023-05-17T03:13:24;96220.72;;;5.92;100.00
62634;BME280;48704;50.534;6.442;2023-05-17T03:15:49;96226.41;;;6.01;100.00
62634;BME280;48704;50.534;6.442;2023-05-17T03:18:14;96224.69;;;6.08;100.00
62634;BME280;48704;50.534;6.442;2023-05-17T03:20:40;96225.63;;;5.32;100.00
62634;BME280;48704;50.534;6.442;2023-05-17T03:23:05;96215.50;;;5.26;100.00
62634;BME280;48704;50.534;6.442;2023-05-17T03:25:30;96232.41;;;5.48;100.00
62634;BME280;48704;50.534;6.442;2023-05-17T03:27:56;96233.25;;;5.45;100.00
62634;BME280;48704;50.534;6.442;2023-05-17T03:30:21;96236.72;;;5.49;100.00
62634;BME280;48704;50.534;6.442;2023-05-17T03:32:46;96224.97;;;5.61;100.00
62634;BME280;48704;50.534;6.442;2023-05-17T03:35:11;96241.09;;;5.82;100.00
62634;BME280;48704;50.534;6.442;2023-05-17T03:37:37;96244.16;;;5.52;100.00
62634;BME280;48704;50.534;6.442;2023-05-17T03:40:02;96254.91;;;5.10;100.00
62634;BME280;48704;50.534;6.442;2023-05-17T03:42:28;96247.34;;;5.14;100.00
62634;BME280;48704;50.534;6.442;2023-05-17T03:44:53;96254.25;;;5.22;100.00
62634;BME280;48704;50.534;6.442;2023-05-17T03:47:18;96249.66;;;5.16;100.00
62634;BME280;48704;50.534;6.442;2023-05-17T03:49:47;96262.28;;;5.17;100.00
62634;BME280;48704;50.534;6.442;2023-05-17T03:52:12;96250.44;;;4.77;100.00
62634;BME280;48704;50.534;6.442;2023-05-17T03:54:38;96247.13;;;5.05;100.00
62634;BME280;48704;50.534;6.442;2023-05-17T03:57:03;96249.16;;;5.01;100.00
62634;BME280;48704;50.534;6.442;2023-05-17T03:59:29;96253.03;;;4.84;100.00
62634;BME280;48704;50.534;6.442;2023-05-17T04:01:54;96255.53;;;4.98;100.00
62634;BME280;48704;50.534;6.442;2023-05-17T04:04:19;96257.44;;;5.01;100.00
62634;BME280;48704;50.534;6.442;2023-05-17T04:06:45;96256.88;;;4.90;100.00
62634;BME280;48704;50.534;6.442;2023-05-17T04:09:10;96264.81;;;5.08;100.00
62634;BME280;48704;50.534;6.442;2023-05-17T04:11:37;96265.59;;;5.08;100.00
62634;BME280;48704;50.534;6.442;2023-05-17T04:14:04;96269.25;;;5.21;100.00
62634;BME280;48704;50.534;6.442;2023-05-17T04:16:29;96273.66;;;4.99;100.00
62634;BME280;48704;50.534;6.442;2023-05-17T04:18:58;96283.72;;;5.09;100.00
62634;BME280;48704;50.534;6.442;2023-05-17T04:21:23;96282.53;;;5.10;100.00
62634;BME280;48704;50.534;6.442;2023-05-17T04:23:49;96280.31;;;5.21;100.00
62634;BME280;48704;50.534;6.442;2023-05-17T04:26:14;96278.06;;;5.16;100.00
62634;BME280;48704;50.534;6.442;2023-05-17T04:28:40;96281.03;;;5.25;100.00
62634;BME280;48704;50.534;6.442;2023-05-17T04:31:08;96281.53;;;5.40;100.00
62634;BME280;48704;50.534;6.442;2023-05-17T04:33:35;96282.84;;;5.52;100.00
62634;BME280;48704;50.534;6.442;2023-05-17T04:36:01;96280.81;;;5.36;100.00
62634;BME280;48704;50.534;6.442;2023-05-17T04:38:26;96288.97;;;5.23;100.00
62634;BME280;48704;50.534;6.442;2023-05-17T04:40:52;96289.50;;;5.54;100.00
62634;BME280;48704;50.534;6.442;2023-05-17T04:43:17;96300.44;;;5.78;100.00
62634;BME280;48704;50.534;6.442;2023-05-17T04:45:42;96294.84;;;5.81;100.00
62634;BME280;48704;50.534;6.442;2023-05-17T04:48:08;96298.72;;;5.48;100.00
62634;BME280;48704;50.534;6.442;2023-05-17T04:50:33;96299.16;;;5.26;100.00
62634;BME280;48704;50.534;6.442;2023-05-17T04:52:58;96300.72;;;5.27;100.00
62634;BME280;48704;50.534;6.442;2023-05-17T04:55:24;96303.28;;;5.74;100.00
62634;BME280;48704;50.534;6.442;2023-05-17T04:57:49;96299.06;;;6.22;100.00
62634;BME280;48704;50.534;6.442;2023-05-17T05:00:15;96309.94;;;6.13;100.00
62634;BME280;48704;50.534;6.442;2023-05-17T05:02:41;96307.88;;;6.33;100.00
62634;BME280;48704;50.534;6.442;2023-05-17T05:05:06;96315.00;;;5.62;100.00
62634;BME280;48704;50.534;6.442;2023-05-17T05:07:32;96321.56;;;5.52;100.00
62634;BME280;48704;50.534;6.442;2023-05-17T05:09:57;96318.50;;;5.46;100.00
62634;BME280;48704;50.534;6.442;2023-05-17T05:12:23;96325.38;;;5.38;100.00
62634;BME280;48704;50.534;6.442;2023-05-17T05:14:48;96327.38;;;5.37;100.00
62634;BME280;48704;50.534;6.442;2023-05-17T05:17:14;96333.16;;;5.63;100.00
62634;BME280;48704;50.534;6.442;2023-05-17T05:19:39;96335.72;;;5.54;100.00
62634;BME280;48704;50.534;6.442;2023-05-17T05:22:05;96339.91;;;5.22;100.00
62634;BME280;48704;50.534;6.442;2023-05-17T05:24:30;96338.28;;;5.45;100.00
62634;BME280;48704;50.534;6.442;2023-05-17T05:26:55;96343.66;;;5.52;100.00
62634;BME280;48704;50.534;6.442;2023-05-17T05:29:20;96342.66;;;5.62;100.00
62634;BME280;48704;50.534;6.442;2023-05-17T05:31:46;96349.91;;;5.36;100.00
62634;BME280;48704;50.534;6.442;2023-05-17T05:34:11;96342.03;;;5.34;100.00
62634;BME280;48704;50.534;6.442;2023-05-17T05:36:36;96337.56;;;5.41;100.00
62634;BME280;48704;50.534;6.442;2023-05-17T05:39:02;96344.38;;;5.56;100.00
62634;BME280;48704;50.534;6.442;2023-05-17T05:41:27;96350.47;;;5.27;100.00
62634;BME280;48704;50.534;6.442;2023-05-17T05:43:52;96345.78;;;5.24;100.00
62634;BME280;48704;50.534;6.442;2023-05-17T05:46:18;96349.19;;;5.52;100.00
62634;BME280;48704;50.534;6.442;2023-05-17T05:48:43;96352.13;;;5.81;100.00
62634;BME280;48704;50.534;6.442;2023-05-17T05:51:10;96357.41;;;5.35;100.00
62634;BME280;48704;50.534;6.442;2023-05-17T05:53:35;96353.00;;;5.58;100.00
62634;BME280;48704;50.534;6.442;2023-05-17T05:56:01;96358.88;;;5.60;100.00
62634;BME280;48704;50.534;6.442;2023-05-17T05:58:28;96353.16;;;5.51;100.00
62634;BME280;48704;50.534;6.442;2023-05-17T06:00:53;96362.50;;;5.77;100.00
62634;BME280;48704;50.534;6.442;2023-05-17T06:03:18;96362.28;;;5.67;100.00
62634;BME280;48704;50.534;6.442;2023-05-17T06:05:44;96359.81;;;5.73;100.00
62634;BME280;48704;50.534;6.442;2023-05-17T06:08:09;96368.41;;;6.15;100.00
62634;BME280;48704;50.534;6.442;2023-05-17T06:10:34;96361.81;;;5.92;100.00
62634;BME280;48704;50.534;6.442;2023-05-17T06:13:00;96372.97;;;5.85;100.00
62634;BME280;48704;50.534;6.442;2023-05-17T06:15:26;96372.31;;;6.17;100.00
62634;BME280;48704;50.534;6.442;2023-05-17T06:17:51;96375.50;;;6.16;100.00
62634;BME280;48704;50.534;6.442;2023-05-17T06:20:17;96378.97;;;6.36;100.00
62634;BME280;48704;50.534;6.442;2023-05-17T06:22:42;96375.16;;;6.14;100.00
62634;BME280;48704;50.534;6.442;2023-05-17T06:25:08;96385.56;;;6.26;100.00
62634;BME280;48704;50.534;6.442;2023-05-17T06:27:35;96381.22;;;6.41;100.00
62634;BME280;48704;50.534;6.442;2023-05-17T06:30:01;96376.75;;;6.63;100.00
62634;BME280;48704;50.534;6.442;2023-05-17T06:32:26;96388.66;;;6.28;100.00
62634;BME280;48704;50.534;6.442;2023-05-17T06:34:51;96383.56;;;6.43;100.00
62634;BME280;48704;50.534;6.442;2023-05-17T06:37:16;96382.53;;;6.00;100.00
62634;BME280;48704;50.534;6.442;2023-05-17T06:39:42;96380.28;;;6.48;100.00
62634;BME280;48704;50.534;6.442;2023-05-17T06:42:07;96382.78;;;6.75;100.00
62634;BME280;48704;50.534;6.442;2023-05-17T06:44:32;96382.97;;;7.00;100.00
62634;BME280;48704;50.534;6.442;2023-05-17T06:46:59;96386.78;;;6.74;100.00
62634;BME280;48704;50.534;6.442;2023-05-17T06:49:25;96379.66;;;6.40;100.00
62634;BME280;48704;50.534;6.442;2023-05-17T06:51:50;96378.13;;;6.71;100.00
62634;BME280;48704;50.534;6.442;2023-05-17T06:54:15;96379.53;;;6.63;100.00
62634;BME280;48704;50.534;6.442;2023-05-17T06:56:43;96384.69;;;6.45;100.00
62634;BME280;48704;50.534;6.442;2023-05-17T06:59:09;96382.88;;;7.03;100.00
62634;BME280;48704;50.534;6.442;2023-05-17T07:01:34;96385.84;;;6.64;100.00
62634;BME280;48704;50.534;6.442;2023-05-17T07:04:00;96382.28;;;6.63;100.00
62634;BME280;48704;50.534;6.442;2023-05-17T07:06:25;96381.94;;;6.45;100.00
62634;BME280;48704;50.534;6.442;2023-05-17T07:08:50;96389.56;;;6.57;100.00
62634;BME280;48704;50.534;6.442;2023-05-17T07:11:15;96393.66;;;6.33;100.00
62634;BME280;48704;50.534;6.442;2023-05-17T07:13:41;96395.53;;;6.56;100.00
62634;BME280;48704;50.534;6.442;2023-05-17T07:16:07;96398.75;;;6.18;100.00
62634;BME280;48704;50.534;6.442;2023-05-17T07:18:32;96401.06;;;6.03;100.00
62634;BME280;48704;50.534;6.442;2023-05-17T07:20:57;96398.69;;;6.38;100.00
62634;BME280;48704;50.534;6.442;2023-05-17T07:23:23;96397.44;;;6.59;100.00
62634;BME280;48704;50.534;6.442;2023-05-17T07:25:48;96405.59;;;6.66;100.00
62634;BME280;48704;50.534;6.442;2023-05-17T07:28:13;96407.72;;;6.75;100.00
62634;BME280;48704;50.534;6.442;2023-05-17T07:30:39;96414.75;;;6.63;100.00
62634;BME280;48704;50.534;6.442;2023-05-17T07:33:04;96411.34;;;6.71;100.00
62634;BME280;48704;50.534;6.442;2023-05-17T07:35:30;96406.16;;;6.74;100.00
62634;BME280;48704;50.534;6.442;2023-05-17T07:37:55;96406.50;;;6.43;100.00
62634;BME280;48704;50.534;6.442;2023-05-17T07:40:20;96409.28;;;6.76;100.00
62634;BME280;48704;50.534;6.442;2023-05-17T07:42:46;96403.00;;;7.20;100.00
62634;BME280;48704;50.534;6.442;2023-05-17T07:45:11;96413.19;;;6.94;100.00
62634;BME280;48704;50.534;6.442;2023-05-17T07:47:36;96416.22;;;7.00;100.00
62634;BME280;48704;50.534;6.442;2023-05-17T07:50:02;96409.59;;;7.10;100.00
62634;BME280;48704;50.534;6.442;2023-05-17T07:52:28;96421.94;;;6.93;100.00
62634;BME280;48704;50.534;6.442;2023-05-17T07:54:53;96412.66;;;7.45;100.00
62634;BME280;48704;50.534;6.442;2023-05-17T07:57:19;96411.88;;;7.73;100.00
62634;BME280;48704;50.534;6.442;2023-05-17T07:59:44;96427.66;;;7.76;100.00
62634;BME280;48704;50.534;6.442;2023-05-17T08:02:09;96422.31;;;7.40;100.00
62634;BME280;48704;50.534;6.442;2023-05-17T08:04:34;96419.91;;;7.55;100.00
62634;BME280;48704;50.534;6.442;2023-05-17T08:07:01;96424.06;;;8.17;100.00
62634;BME280;48704;50.534;6.442;2023-05-17T08:09:26;96426.91;;;8.55;100.00
62634;BME280;48704;50.534;6.442;2023-05-17T08:11:51;96430.09;;;9.04;100.00
62634;BME280;48704;50.534;6.442;2023-05-17T08:14:20;96428.25;;;7.96;100.00
62634;BME280;48704;50.534;6.442;2023-05-17T08:16:45;96431.53;;;9.09;100.00
62634;BME280;48704;50.534;6.442;2023-05-17T08:19:12;96428.66;;;9.47;100.00
62634;BME280;48704;50.534;6.442;2023-05-17T08:21:39;96428.91;;;9.96;100.00
62634;BME280;48704;50.534;6.442;2023-05-17T08:24:05;96428.19;;;10.27;100.00
62634;BME280;48704;50.534;6.442;2023-05-17T08:26:30;96429.09;;;10.24;100.00
62634;BME280;48704;50.534;6.442;2023-05-17T08:28:55;96431.72;;;10.05;100.00
62634;BME280;48704;50.534;6.442;2023-05-17T08:31:21;96431.09;;;9.58;100.00
62634;BME280;48704;50.534;6.442;2023-05-17T08:33:46;96427.47;;;8.63;100.00
62634;BME280;48704;50.534;6.442;2023-05-17T08:36:11;96432.13;;;8.66;100.00
62634;BME280;48704;50.534;6.442;2023-05-17T08:38:37;96434.91;;;8.79;100.00
62634;BME280;48704;50.534;6.442;2023-05-17T08:41:02;96433.41;;;8.23;100.00
62634;BME280;48704;50.534;6.442;2023-05-17T08:43:28;96427.09;;;8.99;100.00
62634;BME280;48704;50.534;6.442;2023-05-17T08:45:55;96433.81;;;8.89;100.00
62634;BME280;48704;50.534;6.442;2023-05-17T08:48:22;96432.19;;;9.60;100.00
62634;BME280;48704;50.534;6.442;2023-05-17T08:50:49;96436.47;;;9.96;100.00
62634;BME280;48704;50.534;6.442;2023-05-17T08:53:18;96434.81;;;9.29;100.00
62634;BME280;48704;50.534;6.442;2023-05-17T08:55:45;96438.53;;;9.14;100.00
62634;BME280;48704;50.534;6.442;2023-05-17T08:58:15;96443.56;;;9.06;100.00
62634;BME280;48704;50.534;6.442;2023-05-17T09:00:44;96437.56;;;8.95;100.00
62634;BME280;48704;50.534;6.442;2023-05-17T09:03:12;96444.06;;;9.95;100.00
62634;BME280;48704;50.534;6.442;2023-05-17T09:05:40;96439.47;;;10.01;100.00
62634;BME280;48704;50.534;6.442;2023-05-17T09:08:05;96440.44;;;9.86;100.00
62634;BME280;48704;50.534;6.442;2023-05-17T09:10:31;96447.22;;;9.85;100.00
62634;BME280;48704;50.534;6.442;2023-05-17T09:12:57;96446.13;;;9.82;100.00
62634;BME280;48704;50.534;6.442;2023-05-17T09:15:22;96442.97;;;9.24;100.00
62634;BME280;48704;50.534;6.442;2023-05-17T09:17:55;96449.00;;;8.33;100.00
62634;BME280;48704;50.534;6.442;2023-05-17T09:20:27;96450.84;;;8.24;100.00
62634;BME280;48704;50.534;6.442;2023-05-17T09:23:00;96447.78;;;8.98;100.00
62634;BME280;48704;50.534;6.442;2023-05-17T09:25:27;96454.94;;;9.33;100.00
62634;BME280;48704;50.534;6.442;2023-05-17T09:27:53;96449.41;;;9.33;100.00
62634;BME280;48704;50.534;6.442;2023-05-17T09:30:25;96456.56;;;9.22;100.00
62634;BME280;48704;50.534;6.442;2023-05-17T09:32:51;96450.50;;;8.89;100.00
62634;BME280;48704;50.534;6.442;2023-05-17T09:35:17;96455.78;;;9.21;100.00
62634;BME280;48704;50.534;6.442;2023-05-17T09:37:43;96456.69;;;8.93;100.00
62634;BME280;48704;50.534;6.442;2023-05-17T09:40:21;96448.06;;;9.38;100.00
62634;BME280;48704;50.534;6.442;2023-05-17T09:42:47;96448.56;;;9.80;100.00
62634;BME280;48704;50.534;6.442;2023-05-17T09:45:20;96452.00;;;10.06;100.00
62634;BME280;48704;50.534;6.442;2023-05-17T09:47:45;96450.16;;;9.68;100.00
62634;BME280;48704;50.534;6.442;2023-05-17T09:50:16;96452.34;;;9.04;100.00
62634;BME280;48704;50.534;6.442;2023-05-17T09:52:42;96454.22;;;9.20;96.39
62634;BME280;48704;50.534;6.442;2023-05-17T09:55:09;96457.28;;;8.88;100.00
62634;BME280;48704;50.534;6.442;2023-05-17T09:57:36;96453.56;;;9.16;100.00
62634;BME280;48704;50.534;6.442;2023-05-17T10:00:03;96443.78;;;8.99;100.00
62634;BME280;48704;50.534;6.442;2023-05-17T10:02:36;96459.16;;;8.91;100.00
62634;BME280;48704;50.534;6.442;2023-05-17T10:05:03;96444.41;;;9.28;100.00
62634;BME280;48704;50.534;6.442;2023-05-17T10:07:33;96447.38;;;10.25;100.00
62634;BME280;48704;50.534;6.442;2023-05-17T10:09:58;96439.66;;;10.60;100.00
62634;BME280;48704;50.534;6.442;2023-05-17T10:12:26;96439.75;;;11.36;95.61
62634;BME280;48704;50.534;6.442;2023-05-17T10:14:54;96449.91;;;11.98;89.41
62634;BME280;48704;50.534;6.442;2023-05-17T10:17:20;96444.19;;;11.83;86.18
62634;BME280;48704;50.534;6.442;2023-05-17T10:19:46;96439.63;;;12.83;79.39
62634;BME280;48704;50.534;6.442;2023-05-17T10:22:11;96439.75;;;12.28;75.98
62634;BME280;48704;50.534;6.442;2023-05-17T10:24:38;96446.84;;;11.10;75.95
62634;BME280;48704;50.534;6.442;2023-05-17T10:27:05;96444.16;;;10.57;83.38
62634;BME280;48704;50.534;6.442;2023-05-17T10:29:32;96449.41;;;10.55;92.62
62634;BME280;48704;50.534;6.442;2023-05-17T10:32:02;96450.56;;;9.58;94.42
62634;BME280;48704;50.534;6.442;2023-05-17T10:34:28;96450.16;;;9.68;86.66
62634;BME280;48704;50.534;6.442;2023-05-17T10:36:54;96439.16;;;10.21;88.72
62634;BME280;48704;50.534;6.442;2023-05-17T10:39:20;96438.84;;;11.49;82.70
62634;BME280;48704;50.534;6.442;2023-05-17T10:41:48;96433.53;;;12.93;69.57
62634;BME280;48704;50.534;6.442;2023-05-17T10:44:15;96428.53;;;13.30;62.75
62634;BME280;48704;50.534;6.442;2023-05-17T10:46:50;96430.31;;;13.10;69.60
62634;BME280;48704;50.534;6.442;2023-05-17T10:49:16;96431.56;;;10.84;74.59
62634;BME280;48704;50.534;6.442;2023-05-17T10:51:44;96423.00;;;11.36;75.07
62634;BME280;48704;50.534;6.442;2023-05-17T10:54:11;96436.16;;;10.68;72.21
62634;BME280;48704;50.534;6.442;2023-05-17T10:56:42;96437.97;;;10.62;67.76
62634;BME280;48704;50.534;6.442;2023-05-17T10:59:17;96435.78;;;11.92;68.17
62634;BME280;48704;50.534;6.442;2023-05-17T11:04:41;96430.75;;;12.33;64.61
62634;BME280;48704;50.534;6.442;2023-05-17T11:10:04;96423.31;;;13.86;60.77
62634;BME280;48704;50.534;6.442;2023-05-17T11:12:44;96416.34;;;14.79;57.68
62634;BME280;48704;50.534;6.442;2023-05-17T11:15:15;96410.59;;;14.14;58.32
62634;BME280;48704;50.534;6.442;2023-05-17T11:23:06;96416.03;;;11.32;72.85
62634;BME280;48704;50.534;6.442;2023-05-17T11:25:33;96420.09;;;12.04;69.10
62634;BME280;48704;50.534;6.442;2023-05-17T11:28:05;96425.94;;;12.85;66.47
62634;BME280;48704;50.534;6.442;2023-05-17T11:30:32;96412.34;;;13.34;59.31
62634;BME280;48704;50.534;6.442;2023-05-17T11:32:59;96414.00;;;13.41;64.32
62634;BME280;48704;50.534;6.442;2023-05-17T11:35:28;96411.09;;;13.74;58.07
62634;BME280;48704;50.534;6.442;2023-05-17T11:38:21;96410.38;;;14.91;60.80
62634;BME280;48704;50.534;6.442;2023-05-17T11:40:51;96402.88;;;14.83;57.44
62634;BME280;48704;50.534;6.442;2023-05-17T11:43:21;96410.69;;;16.10;53.78
62634;BME280;48704;50.534;6.442;2023-05-17T11:45:49;96407.97;;;13.57;57.08
62634;BME280;48704;50.534;6.442;2023-05-17T11:48:16;96410.53;;;13.70;58.79
62634;BME280;48704;50.534;6.442;2023-05-17T11:50:42;96413.22;;;13.64;60.23
62634;BME280;48704;50.534;6.442;2023-05-17T11:53:08;96404.81;;;12.84;62.40
62634;BME280;48704;50.534;6.442;2023-05-17T11:55:42;96411.59;;;11.80;63.94
62634;BME280;48704;50.534;6.442;2023-05-17T11:58:10;96419.09;;;12.34;58.65
62634;BME280;48704;50.534;6.442;2023-05-17T12:00:39;96402.97;;;12.81;66.14
62634;BME280;48704;50.534;6.442;2023-05-17T12:03:28;96402.13;;;13.70;58.63
62634;BME280;48704;50.534;6.442;2023-05-17T12:06:02;96397.34;;;14.15;56.25
62634;BME280;48704;50.534;6.442;2023-05-17T12:08:29;96396.16;;;14.45;56.09
62634;BME280;48704;50.534;6.442;2023-05-17T12:10:56;96394.00;;;13.33;57.55
62634;BME280;48704;50.534;6.442;2023-05-17T12:13:21;96391.19;;;12.25;62.07
62634;BME280;48704;50.534;6.442;2023-05-17T12:15:55;96388.75;;;14.77;55.36
62634;BME280;48704;50.534;6.442;2023-05-17T12:18:21;96393.03;;;15.63;52.23
62634;BME280;48704;50.534;6.442;2023-05-17T12:20:53;96395.78;;;15.57;53.64
62634;BME280;48704;50.534;6.442;2023-05-17T12:23:25;96391.66;;;14.83;51.04
62634;BME280;48704;50.534;6.442;2023-05-17T12:25:50;96393.94;;;14.99;48.53
62634;BME280;48704;50.534;6.442;2023-05-17T12:28:16;96399.84;;;16.23;50.73
62634;BME280;48704;50.534;6.442;2023-05-17T12:30:51;96396.13;;;16.37;49.37
62634;BME280;48704;50.534;6.442;2023-05-17T12:33:17;96396.03;;;16.26;49.14
62634;BME280;48704;50.534;6.442;2023-05-17T12:35:43;96407.72;;;14.09;53.61
62634;BME280;48704;50.534;6.442;2023-05-17T12:38:08;96392.94;;;15.02;51.43
62634;BME280;48704;50.534;6.442;2023-05-17T12:40:35;96395.78;;;15.78;51.31
62634;BME280;48704;50.534;6.442;2023-05-17T12:43:04;96403.34;;;15.71;51.61
62634;BME280;48704;50.534;6.442;2023-05-17T12:45:30;96397.25;;;16.19;47.29
62634;BME280;48704;50.534;6.442;2023-05-17T12:47:55;96390.66;;;16.54;48.17
62634;BME280;48704;50.534;6.442;2023-05-17T12:50:41;96386.75;;;17.09;44.02
62634;BME280;48704;50.534;6.442;2023-05-17T12:53:09;96390.94;;;15.58;45.79
62634;BME280;48704;50.534;6.442;2023-05-17T12:55:36;96390.13;;;14.52;48.47
62634;BME280;48704;50.534;6.442;2023-05-17T12:58:01;96387.75;;;14.95;51.63
62634;BME280;48704;50.534;6.442;2023-05-17T13:00:28;96383.72;;;16.49;49.61
62634;BME280;48704;50.534;6.442;2023-05-17T13:02:53;96382.03;;;16.31;50.54
62634;BME280;48704;50.534;6.442;2023-05-17T13:05:18;96395.19;;;17.51;46.35
62634;BME280;48704;50.534;6.442;2023-05-17T13:07:47;96393.66;;;17.50;48.33
62634;BME280;48704;50.534;6.442;2023-05-17T13:10:22;96396.41;;;16.39;48.82
62634;BME280;48704;50.534;6.442;2023-05-17T13:12:58;96397.59;;;16.27;49.99
62634;BME280;48704;50.534;6.442;2023-05-17T13:15:30;96388.75;;;15.88;49.20
62634;BME280;48704;50.534;6.442;2023-05-17T13:17:56;96390.72;;;15.06;51.46